sensor_id;sensor_type;location;lat;lon;timestamp;P1;durP1;ratioP1;P2;durP2;ratioP2
12210;SDS011;6168;42.658;23.298;2022-07-09T04:02:43;1.55;;;1.55;;
12210;SDS011;6168;42.658;23.298;2022-07-09T04:05:10;1.50;;;1.50;;
12210;SDS011;6168;42.658;23.298;2022-07-09T04:07:37;1.58;;;1.48;;
12210;SDS011;6168;42.658;23.298;2022-07-09T04:10:05;1.85;;;1.75;;
12210;SDS011;6168;42.658;23.298;2022-07-09T04:12:32;1.85;;;1.60;;
12210;SDS011;6168;42.658;23.298;2022-07-09T04:14:59;1.45;;;1.45;;
12210;SDS011;6168;42.658;23.298;2022-07-09T04:17:26;1.38;;;1.25;;
12210;SDS011;6168;42.658;23.298;2022-07-09T04:19:55;1.45;;;1.35;;
12210;SDS011;6168;42.658;23.298;2022-07-09T04:22:21;1.73;;;1.63;;
12210;SDS011;6168;42.658;23.298;2022-07-09T04:24:48;1.50;;;1.40;;
12210;SDS011;6168;42.658;23.298;2022-07-09T04:27:15;1.83;;;1.83;;
12210;SDS011;6168;42.658;23.298;2022-07-09T04:29:42;1.85;;;1.60;;
12210;SDS011;6168;42.658;23.298;2022-07-09T04:32:09;1.83;;;1.73;;
12210;SDS011;6168;42.658;23.298;2022-07-09T04:34:36;4.45;;;1.77;;
12210;SDS011;6168;42.658;23.298;2022-07-09T04:37:04;2.10;;;2.10;;
12210;SDS011;6168;42.658;23.298;2022-07-09T04:39:32;2.25;;;2.05;;
12210;SDS011;6168;42.658;23.298;2022-07-09T04:41:58;2.08;;;1.98;;
12210;SDS011;6168;42.658;23.298;2022-07-09T04:44:25;2.28;;;2.15;;
12210;SDS011;6168;42.658;23.298;2022-07-09T04:46:52;1.83;;;1.73;;
12210;SDS011;6168;42.658;23.298;2022-07-09T04:49:19;1.90;;;1.90;;
12210;SDS011;6168;42.658;23.298;2022-07-09T04:51:49;3.80;;;1.80;;
12210;SDS011;6168;42.658;23.298;2022-07-09T04:54:17;1.63;;;1.63;;
12210;SDS011;6168;42.658;23.298;2022-07-09T04:56:44;1.35;;;1.35;;
12210;SDS011;6168;42.658;23.298;2022-07-09T04:59:11;1.48;;;1.40;;
12210;SDS011;6168;42.658;23.298;2022-07-09T05:01:38;1.52;;;1.42;;
12210;SDS011;6168;42.658;23.298;2022-07-09T05:04:05;6.43;;;2.15;;
12210;SDS011;6168;42.658;23.298;2022-07-09T05:06:31;1.90;;;1.83;;
12210;SDS011;6168;42.658;23.298;2022-07-09T05:08:58;1.75;;;1.70;;
12210;SDS011;6168;42.658;23.298;2022-07-09T05:11:27;1.70;;;1.60;;
12210;SDS011;6168;42.658;23.298;2022-07-09T05:13:54;2.17;;;2.08;;
12210;SDS011;6168;42.658;23.298;2022-07-09T05:16:21;1.75;;;1.52;;
12210;SDS011;6168;42.658;23.298;2022-07-09T05:18:48;2.35;;;1.45;;
12210;SDS011;6168;42.658;23.298;2022-07-09T05:21:15;1.75;;;1.65;;
12210;SDS011;6168;42.658;23.298;2022-07-09T05:23:42;1.80;;;1.52;;
12210;SDS011;6168;42.658;23.298;2022-07-09T05:26:09;1.70;;;1.40;;
12210;SDS011;6168;42.658;23.298;2022-07-09T05:28:38;1.55;;;1.23;;
12210;SDS011;6168;42.658;23.298;2022-07-09T05:31:05;1.67;;;1.00;;
12210;SDS011;6168;42.658;23.298;2022-07-09T05:33:32;1.40;;;1.40;;
12210;SDS011;6168;42.658;23.298;2022-07-09T05:35:59;2.05;;;1.30;;
12210;SDS011;6168;42.658;23.298;2022-07-09T05:38:26;1.38;;;1.30;;
12210;SDS011;6168;42.658;23.298;2022-07-09T05:40:52;1.52;;;1.10;;
12210;SDS011;6168;42.658;23.298;2022-07-09T05:43:19;3.33;;;0.80;;
12210;SDS011;6168;42.658;23.298;2022-07-09T05:45:48;1.63;;;1.42;;
12210;SDS011;6168;42.658;23.298;2022-07-09T05:48:14;1.45;;;1.23;;
12210;SDS011;6168;42.658;23.298;2022-07-09T05:50:41;0.90;;;0.90;;
12210;SDS011;6168;42.658;23.298;2022-07-09T05:53:09;1.17;;;1.13;;
12210;SDS011;6168;42.658;23.298;2022-07-09T05:55:35;1.77;;;0.75;;
12210;SDS011;6168;42.658;23.298;2022-07-09T05:58:02;1.08;;;0.98;;
12210;SDS011;6168;42.658;23.298;2022-07-09T06:00:29;0.60;;;0.60;;
12210;SDS011;6168;42.658;23.298;2022-07-09T06:02:57;0.90;;;0.90;;
12210;SDS011;6168;42.658;23.298;2022-07-09T06:05:24;2.03;;;0.82;;
12210;SDS011;6168;42.658;23.298;2022-07-09T06:07:51;0.90;;;0.90;;
12210;SDS011;6168;42.658;23.298;2022-07-09T06:10:18;1.00;;;1.00;;
12210;SDS011;6168;42.658;23.298;2022-07-09T06:12:45;1.20;;;1.20;;
12210;SDS011;6168;42.658;23.298;2022-07-09T06:15:12;1.40;;;1.40;;
12210;SDS011;6168;42.658;23.298;2022-07-09T06:17:39;1.75;;;1.35;;
12210;SDS011;6168;42.658;23.298;2022-07-09T06:20:08;1.20;;;1.20;;
12210;SDS011;6168;42.658;23.298;2022-07-09T06:22:35;0.93;;;0.93;;
12210;SDS011;6168;42.658;23.298;2022-07-09T06:25:04;1.60;;;1.60;;
12210;SDS011;6168;42.658;23.298;2022-07-09T06:27:31;1.48;;;1.42;;
12210;SDS011;6168;42.658;23.298;2022-07-09T06:29:58;1.13;;;1.13;;
12210;SDS011;6168;42.658;23.298;2022-07-09T06:32:25;1.10;;;1.10;;
12210;SDS011;6168;42.658;23.298;2022-07-09T06:34:52;1.13;;;1.13;;
12210;SDS011;6168;42.658;23.298;2022-07-09T06:37:20;0.90;;;0.90;;
12210;SDS011;6168;42.658;23.298;2022-07-09T06:39:47;1.25;;;1.15;;
12210;SDS011;6168;42.658;23.298;2022-07-09T06:42:15;1.10;;;1.10;;
12210;SDS011;6168;42.658;23.298;2022-07-09T06:44:43;2.15;;;1.20;;
12210;SDS011;6168;42.658;23.298;2022-07-09T06:47:10;1.17;;;1.17;;
12210;SDS011;6168;42.658;23.298;2022-07-09T06:49:38;1.67;;;1.20;;
12210;SDS011;6168;42.658;23.298;2022-07-09T06:52:05;1.25;;;1.25;;
12210;SDS011;6168;42.658;23.298;2022-07-09T06:54:34;2.40;;;1.00;;
12210;SDS011;6168;42.658;23.298;2022-07-09T06:57:01;1.20;;;0.90;;
12210;SDS011;6168;42.658;23.298;2022-07-09T06:59:29;0.93;;;0.93;;
12210;SDS011;6168;42.658;23.298;2022-07-09T07:01:56;2.58;;;1.23;;
12210;SDS011;6168;42.658;23.298;2022-07-09T07:04:22;0.90;;;0.90;;
12210;SDS011;6168;42.658;23.298;2022-07-09T07:06:50;0.80;;;0.80;;
12210;SDS011;6168;42.658;23.298;2022-07-09T07:09:17;2.35;;;1.20;;
12210;SDS011;6168;42.658;23.298;2022-07-09T07:11:48;2.50;;;1.27;;
12210;SDS011;6168;42.658;23.298;2022-07-09T07:14:15;1.40;;;1.33;;
12210;SDS011;6168;42.658;23.298;2022-07-09T07:16:42;1.20;;;1.20;;
12210;SDS011;6168;42.658;23.298;2022-07-09T07:19:09;1.13;;;1.13;;
12210;SDS011;6168;42.658;23.298;2022-07-09T07:21:36;1.25;;;1.25;;
12210;SDS011;6168;42.658;23.298;2022-07-09T07:24:04;3.20;;;1.75;;
12210;SDS011;6168;42.658;23.298;2022-07-09T07:26:31;1.17;;;1.17;;
12210;SDS011;6168;42.658;23.298;2022-07-09T07:29:00;1.58;;;1.55;;
12210;SDS011;6168;42.658;23.298;2022-07-09T07:31:27;1.55;;;1.40;;
12210;SDS011;6168;42.658;23.298;2022-07-09T07:33:54;1.60;;;1.50;;
12210;SDS011;6168;42.658;23.298;2022-07-09T07:36:21;2.17;;;1.23;;
12210;SDS011;6168;42.658;23.298;2022-07-09T07:38:48;2.17;;;2.17;;
12210;SDS011;6168;42.658;23.298;2022-07-09T07:41:15;1.50;;;1.50;;
12210;SDS011;6168;42.658;23.298;2022-07-09T07:43:43;1.70;;;1.60;;
12210;SDS011;6168;42.658;23.298;2022-07-09T07:46:12;1.83;;;1.75;;
12210;SDS011;6168;42.658;23.298;2022-07-09T07:48:39;1.27;;;1.27;;
12210;SDS011;6168;42.658;23.298;2022-07-09T07:51:07;2.28;;;2.13;;
12210;SDS011;6168;42.658;23.298;2022-07-09T07:53:34;1.67;;;1.67;;
12210;SDS011;6168;42.658;23.298;2022-07-09T07:56:02;1.85;;;1.85;;
12210;SDS011;6168;42.658;23.298;2022-07-09T07:58:29;2.00;;;1.45;;
12210;SDS011;6168;42.658;23.298;2022-07-09T08:00:57;2.80;;;1.67;;
12210;SDS011;6168;42.658;23.298;2022-07-09T08:03:25;1.45;;;1.45;;
12210;SDS011;6168;42.658;23.298;2022-07-09T08:05:52;1.85;;;1.85;;
12210;SDS011;6168;42.658;23.298;2022-07-09T08:08:19;1.48;;;1.48;;
12210;SDS011;6168;42.658;23.298;2022-07-09T08:10:46;1.48;;;1.48;;
12210;SDS011;6168;42.658;23.298;2022-07-09T08:13:13;2.10;;;2.00;;
12210;SDS011;6168;42.658;23.298;2022-07-09T08:15:41;2.03;;;2.03;;
12210;SDS011;6168;42.658;23.298;2022-07-09T08:18:09;1.70;;;1.60;;
12210;SDS011;6168;42.658;23.298;2022-07-09T08:20:39;1.35;;;1.35;;
12210;SDS011;6168;42.658;23.298;2022-07-09T08:23:07;1.33;;;1.33;;
12210;SDS011;6168;42.658;23.298;2022-07-09T08:25:35;0.98;;;0.98;;
12210;SDS011;6168;42.658;23.298;2022-07-09T08:28:02;1.38;;;1.38;;
12210;SDS011;6168;42.658;23.298;2022-07-09T08:30:29;1.15;;;1.15;;
12210;SDS011;6168;42.658;23.298;2022-07-09T08:32:56;1.55;;;1.55;;
12210;SDS011;6168;42.658;23.298;2022-07-09T08:35:23;1.58;;;1.35;;
12210;SDS011;6168;42.658;23.298;2022-07-09T08:37:52;1.48;;;1.48;;
12210;SDS011;6168;42.658;23.298;2022-07-09T08:40:20;1.58;;;1.58;;
12210;SDS011;6168;42.658;23.298;2022-07-09T08:42:47;1.83;;;1.75;;
12210;SDS011;6168;42.658;23.298;2022-07-09T08:45:14;1.42;;;1.40;;
12210;SDS011;6168;42.658;23.298;2022-07-09T08:47:43;1.83;;;1.83;;
12210;SDS011;6168;42.658;23.298;2022-07-09T08:50:11;1.52;;;1.52;;
12210;SDS011;6168;42.658;23.298;2022-07-09T08:52:38;1.77;;;1.77;;
12210;SDS011;6168;42.658;23.298;2022-07-09T08:55:08;1.40;;;1.40;;
12210;SDS011;6168;42.658;23.298;2022-07-09T08:57:36;1.55;;;1.30;;
12210;SDS011;6168;42.658;23.298;2022-07-09T09:00:03;1.45;;;1.35;;
12210;SDS011;6168;42.658;23.298;2022-07-09T09:02:34;1.58;;;1.48;;
12210;SDS011;6168;42.658;23.298;2022-07-09T09:05:06;2.00;;;2.00;;
12210;SDS011;6168;42.658;23.298;2022-07-09T09:07:37;1.48;;;1.48;;
12210;SDS011;6168;42.658;23.298;2022-07-09T09:10:04;1.75;;;1.65;;
12210;SDS011;6168;42.658;23.298;2022-07-09T09:12:33;3.40;;;1.67;;
12210;SDS011;6168;42.658;23.298;2022-07-09T09:15:03;1.45;;;1.45;;
12210;SDS011;6168;42.658;23.298;2022-07-09T09:17:31;1.70;;;1.60;;
12210;SDS011;6168;42.658;23.298;2022-07-09T09:19:58;1.90;;;1.80;;
12210;SDS011;6168;42.658;23.298;2022-07-09T09:22:26;2.17;;;1.98;;
12210;SDS011;6168;42.658;23.298;2022-07-09T09:24:52;2.33;;;2.22;;
12210;SDS011;6168;42.658;23.298;2022-07-09T09:27:26;2.67;;;2.58;;
12210;SDS011;6168;42.658;23.298;2022-07-09T09:29:58;2.63;;;2.53;;
12210;SDS011;6168;42.658;23.298;2022-07-09T09:32:26;3.10;;;2.80;;
12210;SDS011;6168;42.658;23.298;2022-07-09T09:34:53;2.50;;;2.40;;
12210;SDS011;6168;42.658;23.298;2022-07-09T09:37:27;2.55;;;2.45;;
12210;SDS011;6168;42.658;23.298;2022-07-09T09:39:54;2.47;;;2.38;;
12210;SDS011;6168;42.658;23.298;2022-07-09T09:42:23;3.80;;;3.60;;
12210;SDS011;6168;42.658;23.298;2022-07-09T09:44:51;3.00;;;2.80;;
12210;SDS011;6168;42.658;23.298;2022-07-09T09:47:21;2.88;;;2.67;;
12210;SDS011;6168;42.658;23.298;2022-07-09T09:49:51;3.35;;;3.25;;
12210;SDS011;6168;42.658;23.298;2022-07-09T09:52:20;3.10;;;2.92;;
12210;SDS011;6168;42.658;23.298;2022-07-09T09:54:48;2.90;;;2.70;;
12210;SDS011;6168;42.658;23.298;2022-07-09T09:57:17;3.10;;;2.92;;
12210;SDS011;6168;42.658;23.298;2022-07-09T09:59:45;4.05;;;3.85;;
12210;SDS011;6168;42.658;23.298;2022-07-09T10:02:13;4.75;;;4.40;;
12210;SDS011;6168;42.658;23.298;2022-07-09T10:04:42;3.95;;;3.80;;
12210;SDS011;6168;42.658;23.298;2022-07-09T10:07:10;4.10;;;4.00;;
12210;SDS011;6168;42.658;23.298;2022-07-09T10:09:38;4.38;;;4.18;;
12210;SDS011;6168;42.658;23.298;2022-07-09T10:12:06;3.92;;;3.63;;
12210;SDS011;6168;42.658;23.298;2022-07-09T10:14:36;2.50;;;2.40;;
12210;SDS011;6168;42.658;23.298;2022-07-09T10:39:51;3.28;;;3.10;;
12210;SDS011;6168;42.658;23.298;2022-07-09T10:42:19;2.88;;;2.67;;
12210;SDS011;6168;42.658;23.298;2022-07-09T10:44:48;2.40;;;2.30;;
12210;SDS011;6168;42.658;23.298;2022-07-09T10:47:16;3.90;;;2.15;;
12210;SDS011;6168;42.658;23.298;2022-07-09T10:49:43;1.00;;;1.00;;
12210;SDS011;6168;42.658;23.298;2022-07-09T10:52:10;1.42;;;1.42;;
12210;SDS011;6168;42.658;23.298;2022-07-09T10:54:46;1.25;;;0.90;;
12210;SDS011;6168;42.658;23.298;2022-07-09T10:57:14;2.28;;;0.52;;
12210;SDS011;6168;42.658;23.298;2022-07-09T10:59:44;0.50;;;0.50;;
12210;SDS011;6168;42.658;23.298;2022-07-09T11:02:16;0.30;;;0.30;;
12210;SDS011;6168;42.658;23.298;2022-07-09T11:04:47;0.50;;;0.50;;
12210;SDS011;6168;42.658;23.298;2022-07-09T11:07:18;1.65;;;0.50;;
12210;SDS011;6168;42.658;23.298;2022-07-09T11:09:47;0.80;;;0.40;;
12210;SDS011;6168;42.658;23.298;2022-07-09T11:12:15;0.50;;;0.50;;
12210;SDS011;6168;42.658;23.298;2022-07-09T11:14:43;0.50;;;0.50;;
12210;SDS011;6168;42.658;23.298;2022-07-09T11:17:13;0.50;;;0.50;;
12210;SDS011;6168;42.658;23.298;2022-07-09T11:19:40;0.63;;;0.50;;
12210;SDS011;6168;42.658;23.298;2022-07-09T11:22:08;0.50;;;0.50;;
12210;SDS011;6168;42.658;23.298;2022-07-09T11:24:35;0.70;;;0.70;;
12210;SDS011;6168;42.658;23.298;2022-07-09T11:27:03;0.57;;;0.57;;
12210;SDS011;6168;42.658;23.298;2022-07-09T11:29:31;0.55;;;0.55;;
12210;SDS011;6168;42.658;23.298;2022-07-09T11:31:58;3.30;;;0.50;;
12210;SDS011;6168;42.658;23.298;2022-07-09T11:34:27;0.65;;;0.45;;
12210;SDS011;6168;42.658;23.298;2022-07-09T11:36:55;0.40;;;0.40;;
12210;SDS011;6168;42.658;23.298;2022-07-09T11:39:23;2.05;;;0.60;;
12210;SDS011;6168;42.658;23.298;2022-07-09T11:41:52;0.60;;;0.40;;
12210;SDS011;6168;42.658;23.298;2022-07-09T11:44:22;0.40;;;0.40;;
12210;SDS011;6168;42.658;23.298;2022-07-09T11:47:03;1.10;;;0.60;;
12210;SDS011;6168;42.658;23.298;2022-07-09T11:49:32;0.47;;;0.40;;
12210;SDS011;6168;42.658;23.298;2022-07-09T11:51:59;0.40;;;0.40;;
12210;SDS011;6168;42.658;23.298;2022-07-09T11:54:26;0.30;;;0.30;;
12210;SDS011;6168;42.658;23.298;2022-07-09T11:56:54;0.98;;;0.50;;
12210;SDS011;6168;42.658;23.298;2022-07-09T11:59:26;0.40;;;0.40;;
12210;SDS011;6168;42.658;23.298;2022-07-09T12:01:56;0.47;;;0.40;;
12210;SDS011;6168;42.658;23.298;2022-07-09T12:04:23;0.30;;;0.30;;
12210;SDS011;6168;42.658;23.298;2022-07-09T12:06:50;0.40;;;0.40;;
12210;SDS011;6168;42.658;23.298;2022-07-09T12:09:26;0.40;;;0.40;;
12210;SDS011;6168;42.658;23.298;2022-07-09T12:11:55;0.40;;;0.40;;
12210;SDS011;6168;42.658;23.298;2022-07-09T12:14:22;0.57;;;0.50;;
12210;SDS011;6168;42.658;23.298;2022-07-09T12:16:50;1.48;;;0.50;;
12210;SDS011;6168;42.658;23.298;2022-07-09T12:19:17;0.50;;;0.43;;
12210;SDS011;6168;42.658;23.298;2022-07-09T12:21:44;0.52;;;0.52;;
12210;SDS011;6168;42.658;23.298;2022-07-09T12:24:11;0.50;;;0.50;;
12210;SDS011;6168;42.658;23.298;2022-07-09T12:26:38;0.50;;;0.50;;
12210;SDS011;6168;42.658;23.298;2022-07-09T12:29:05;0.55;;;0.40;;
12210;SDS011;6168;42.658;23.298;2022-07-09T12:31:32;0.30;;;0.30;;
12210;SDS011;6168;42.658;23.298;2022-07-09T12:34:03;0.40;;;0.40;;
12210;SDS011;6168;42.658;23.298;2022-07-09T12:36:30;0.40;;;0.40;;
12210;SDS011;6168;42.658;23.298;2022-07-09T12:38:57;0.55;;;0.40;;
12210;SDS011;6168;42.658;23.298;2022-07-09T12:41:24;0.70;;;0.35;;
12210;SDS011;6168;42.658;23.298;2022-07-09T12:43:51;0.32;;;0.32;;
12210;SDS011;6168;42.658;23.298;2022-07-09T12:46:17;0.40;;;0.40;;
12210;SDS011;6168;42.658;23.298;2022-07-09T12:48:44;0.30;;;0.30;;
12210;SDS011;6168;42.658;23.298;2022-07-09T12:51:13;0.63;;;0.30;;
12210;SDS011;6168;42.658;23.298;2022-07-09T12:53:39;0.40;;;0.40;;
12210;SDS011;6168;42.658;23.298;2022-07-09T12:56:06;0.50;;;0.50;;
12210;SDS011;6168;42.658;23.298;2022-07-09T12:58:34;1.38;;;0.30;;
12210;SDS011;6168;42.658;23.298;2022-07-09T13:01:00;0.95;;;0.40;;
12210;SDS011;6168;42.658;23.298;2022-07-09T13:03:27;0.40;;;0.40;;
12210;SDS011;6168;42.658;23.298;2022-07-09T13:05:55;0.73;;;0.30;;
12210;SDS011;6168;42.658;23.298;2022-07-09T13:08:23;3.13;;;0.40;;
12210;SDS011;6168;42.658;23.298;2022-07-09T13:10:50;0.40;;;0.40;;
12210;SDS011;6168;42.658;23.298;2022-07-09T13:13:17;0.40;;;0.40;;
12210;SDS011;6168;42.658;23.298;2022-07-09T13:15:44;0.52;;;0.50;;
12210;SDS011;6168;42.658;23.298;2022-07-09T13:18:11;1.80;;;0.40;;
12210;SDS011;6168;42.658;23.298;2022-07-09T13:20:39;0.38;;;0.38;;
12210;SDS011;6168;42.658;23.298;2022-07-09T13:23:06;0.40;;;0.40;;
12210;SDS011;6168;42.658;23.298;2022-07-09T13:25:34;1.13;;;0.50;;
12210;SDS011;6168;42.658;23.298;2022-07-09T13:28:01;0.40;;;0.40;;
12210;SDS011;6168;42.658;23.298;2022-07-09T13:30:28;1.48;;;0.43;;
12210;SDS011;6168;42.658;23.298;2022-07-09T13:32:55;1.73;;;0.50;;
12210;SDS011;6168;42.658;23.298;2022-07-09T13:35:22;1.50;;;0.70;;
12210;SDS011;6168;42.658;23.298;2022-07-09T13:37:49;1.10;;;0.40;;
12210;SDS011;6168;42.658;23.298;2022-07-09T13:40:16;2.15;;;0.43;;
12210;SDS011;6168;42.658;23.298;2022-07-09T13:42:44;0.93;;;0.40;;
12210;SDS011;6168;42.658;23.298;2022-07-09T13:45:11;0.45;;;0.45;;
12210;SDS011;6168;42.658;23.298;2022-07-09T13:47:38;1.25;;;0.43;;
12210;SDS011;6168;42.658;23.298;2022-07-09T13:50:05;0.93;;;0.40;;
12210;SDS011;6168;42.658;23.298;2022-07-09T13:52:33;2.22;;;0.50;;
12210;SDS011;6168;42.658;23.298;2022-07-09T13:55:00;0.40;;;0.40;;
12210;SDS011;6168;42.658;23.298;2022-07-09T13:57:26;2.55;;;0.40;;
12210;SDS011;6168;42.658;23.298;2022-07-09T13:59:55;1.50;;;0.50;;
12210;SDS011;6168;42.658;23.298;2022-07-09T14:02:22;0.85;;;0.50;;
12210;SDS011;6168;42.658;23.298;2022-07-09T14:04:48;0.40;;;0.40;;
12210;SDS011;6168;42.658;23.298;2022-07-09T14:07:15;0.50;;;0.50;;
12210;SDS011;6168;42.658;23.298;2022-07-09T14:09:42;0.40;;;0.40;;
12210;SDS011;6168;42.658;23.298;2022-07-09T14:12:09;1.95;;;0.50;;
12210;SDS011;6168;42.658;23.298;2022-07-09T14:14:36;0.43;;;0.43;;
12210;SDS011;6168;42.658;23.298;2022-07-09T14:17:04;1.10;;;0.43;;
12210;SDS011;6168;42.658;23.298;2022-07-09T14:19:31;0.40;;;0.40;;
12210;SDS011;6168;42.658;23.298;2022-07-09T14:21:58;1.23;;;0.40;;
12210;SDS011;6168;42.658;23.298;2022-07-09T14:24:25;1.17;;;0.40;;
12210;SDS011;6168;42.658;23.298;2022-07-09T14:26:52;0.50;;;0.40;;
12210;SDS011;6168;42.658;23.298;2022-07-09T14:29:19;1.27;;;0.70;;
12210;SDS011;6168;42.658;23.298;2022-07-09T14:31:46;0.80;;;0.40;;
12210;SDS011;6168;42.658;23.298;2022-07-09T14:34:14;1.05;;;0.50;;
12210;SDS011;6168;42.658;23.298;2022-07-09T14:36:41;0.47;;;0.40;;
12210;SDS011;6168;42.658;23.298;2022-07-09T14:39:08;1.10;;;0.50;;
12210;SDS011;6168;42.658;23.298;2022-07-09T14:41:36;0.55;;;0.40;;
12210;SDS011;6168;42.658;23.298;2022-07-09T14:44:03;0.40;;;0.40;;
12210;SDS011;6168;42.658;23.298;2022-07-09T14:46:30;1.13;;;0.60;;
12210;SDS011;6168;42.658;23.298;2022-07-09T14:48:57;2.78;;;0.50;;
12210;SDS011;6168;42.658;23.298;2022-07-09T14:51:25;0.40;;;0.40;;
12210;SDS011;6168;42.658;23.298;2022-07-09T14:53:52;0.40;;;0.40;;
12210;SDS011;6168;42.658;23.298;2022-07-09T14:56:19;0.50;;;0.50;;
12210;SDS011;6168;42.658;23.298;2022-07-09T14:58:46;2.22;;;0.40;;
12210;SDS011;6168;42.658;23.298;2022-07-09T15:01:13;2.92;;;0.60;;
12210;SDS011;6168;42.658;23.298;2022-07-09T15:03:40;0.40;;;0.40;;
12210;SDS011;6168;42.658;23.298;2022-07-09T15:06:07;0.50;;;0.50;;
12210;SDS011;6168;42.658;23.298;2022-07-09T15:08:35;2.40;;;0.50;;
12210;SDS011;6168;42.658;23.298;2022-07-09T15:11:02;1.15;;;0.65;;
12210;SDS011;6168;42.658;23.298;2022-07-09T15:13:29;0.60;;;0.60;;
12210;SDS011;6168;42.658;23.298;2022-07-09T15:15:56;0.60;;;0.50;;
12210;SDS011;6168;42.658;23.298;2022-07-09T15:18:23;0.50;;;0.50;;
12210;SDS011;6168;42.658;23.298;2022-07-09T15:20:50;0.95;;;0.70;;
12210;SDS011;6168;42.658;23.298;2022-07-09T15:23:17;2.05;;;0.60;;
12210;SDS011;6168;42.658;23.298;2022-07-09T15:25:45;0.57;;;0.57;;
12210;SDS011;6168;42.658;23.298;2022-07-09T15:28:12;3.30;;;0.60;;
12210;SDS011;6168;42.658;23.298;2022-07-09T15:30:40;0.50;;;0.50;;
12210;SDS011;6168;42.658;23.298;2022-07-09T15:33:09;0.60;;;0.60;;
12210;SDS011;6168;42.658;23.298;2022-07-09T15:35:38;1.98;;;1.15;;
12210;SDS011;6168;42.658;23.298;2022-07-09T15:38:05;0.73;;;0.60;;
12210;SDS011;6168;42.658;23.298;2022-07-09T15:40:32;3.30;;;0.52;;
12210;SDS011;6168;42.658;23.298;2022-07-09T15:43:00;1.17;;;0.60;;
12210;SDS011;6168;42.658;23.298;2022-07-09T15:45:27;1.58;;;0.70;;
12210;SDS011;6168;42.658;23.298;2022-07-09T15:47:54;0.98;;;0.70;;
12210;SDS011;6168;42.658;23.298;2022-07-09T15:50:21;0.90;;;0.60;;
12210;SDS011;6168;42.658;23.298;2022-07-09T15:52:48;1.15;;;0.77;;
12210;SDS011;6168;42.658;23.298;2022-07-09T15:55:15;2.15;;;0.65;;
12210;SDS011;6168;42.658;23.298;2022-07-09T15:57:42;3.13;;;1.00;;
12210;SDS011;6168;42.658;23.298;2022-07-09T16:00:12;1.25;;;0.77;;
12210;SDS011;6168;42.658;23.298;2022-07-09T16:02:39;0.95;;;0.95;;
12210;SDS011;6168;42.658;23.298;2022-07-09T16:05:07;0.73;;;0.73;;
12210;SDS011;6168;42.658;23.298;2022-07-09T16:07:34;1.88;;;0.70;;
12210;SDS011;6168;42.658;23.298;2022-07-09T16:10:01;3.80;;;1.05;;
12210;SDS011;6168;42.658;23.298;2022-07-09T16:12:29;0.98;;;0.82;;
12210;SDS011;6168;42.658;23.298;2022-07-09T16:15:15;1.73;;;0.95;;
12210;SDS011;6168;42.658;23.298;2022-07-09T16:17:41;3.38;;;1.00;;
12210;SDS011;6168;42.658;23.298;2022-07-09T16:20:09;1.08;;;0.85;;
12210;SDS011;6168;42.658;23.298;2022-07-09T16:22:37;2.88;;;1.00;;
12210;SDS011;6168;42.658;23.298;2022-07-09T16:25:04;1.08;;;1.08;;
12210;SDS011;6168;42.658;23.298;2022-07-09T16:27:31;3.53;;;1.20;;
12210;SDS011;6168;42.658;23.298;2022-07-09T16:29:58;1.42;;;1.33;;
12210;SDS011;6168;42.658;23.298;2022-07-09T16:32:27;1.98;;;1.50;;
12210;SDS011;6168;42.658;23.298;2022-07-09T16:34:54;1.48;;;0.82;;
12210;SDS011;6168;42.658;23.298;2022-07-09T16:37:21;1.25;;;1.25;;
12210;SDS011;6168;42.658;23.298;2022-07-09T16:39:47;1.30;;;1.20;;
12210;SDS011;6168;42.658;23.298;2022-07-09T16:42:14;1.23;;;1.20;;
12210;SDS011;6168;42.658;23.298;2022-07-09T16:44:41;2.03;;;0.98;;
12210;SDS011;6168;42.658;23.298;2022-07-09T16:47:08;1.77;;;1.15;;
12210;SDS011;6168;42.658;23.298;2022-07-09T16:49:36;3.65;;;1.30;;
12210;SDS011;6168;42.658;23.298;2022-07-09T16:52:03;1.50;;;1.40;;
12210;SDS011;6168;42.658;23.298;2022-07-09T16:54:30;1.40;;;1.30;;
12210;SDS011;6168;42.658;23.298;2022-07-09T16:56:57;2.35;;;1.40;;
12210;SDS011;6168;42.658;23.298;2022-07-09T16:59:24;1.25;;;1.25;;
12210;SDS011;6168;42.658;23.298;2022-07-09T17:01:51;1.48;;;1.48;;
12210;SDS011;6168;42.658;23.298;2022-07-09T17:04:18;1.95;;;1.85;;
12210;SDS011;6168;42.658;23.298;2022-07-09T17:06:46;1.33;;;1.33;;
12210;SDS011;6168;42.658;23.298;2022-07-09T17:09:13;2.15;;;1.80;;
12210;SDS011;6168;42.658;23.298;2022-07-09T17:11:40;3.10;;;1.85;;
12210;SDS011;6168;42.658;23.298;2022-07-09T17:14:07;1.60;;;1.60;;
12210;SDS011;6168;42.658;23.298;2022-07-09T17:16:34;2.72;;;1.77;;
12210;SDS011;6168;42.658;23.298;2022-07-09T17:19:00;2.92;;;2.35;;
12210;SDS011;6168;42.658;23.298;2022-07-09T17:21:27;2.33;;;2.22;;
12210;SDS011;6168;42.658;23.298;2022-07-09T17:23:56;2.90;;;2.70;;
12210;SDS011;6168;42.658;23.298;2022-07-09T17:26:22;2.67;;;2.58;;
12210;SDS011;6168;42.658;23.298;2022-07-09T17:28:49;2.42;;;2.25;;
12210;SDS011;6168;42.658;23.298;2022-07-09T17:31:16;2.40;;;2.30;;
12210;SDS011;6168;42.658;23.298;2022-07-09T17:33:43;2.85;;;2.70;;
12210;SDS011;6168;42.658;23.298;2022-07-09T17:36:10;3.25;;;2.90;;
12210;SDS011;6168;42.658;23.298;2022-07-09T17:38:37;2.75;;;2.53;;
12210;SDS011;6168;42.658;23.298;2022-07-09T17:41:05;3.45;;;3.28;;
12210;SDS011;6168;42.658;23.298;2022-07-09T17:43:32;4.10;;;3.22;;
12210;SDS011;6168;42.658;23.298;2022-07-09T17:45:59;5.03;;;2.67;;
12210;SDS011;6168;42.658;23.298;2022-07-09T17:48:26;3.05;;;2.85;;
12210;SDS011;6168;42.658;23.298;2022-07-09T17:50:53;3.83;;;3.72;;
12210;SDS011;6168;42.658;23.298;2022-07-09T17:53:20;3.65;;;3.42;;
12210;SDS011;6168;42.658;23.298;2022-07-09T17:55:46;3.55;;;3.45;;
12210;SDS011;6168;42.658;23.298;2022-07-09T17:58:15;4.10;;;3.80;;
12210;SDS011;6168;42.658;23.298;2022-07-09T18:00:43;3.42;;;3.33;;
12210;SDS011;6168;42.658;23.298;2022-07-09T18:03:11;3.15;;;3.15;;
12210;SDS011;6168;42.658;23.298;2022-07-09T18:05:38;3.72;;;3.53;;
12210;SDS011;6168;42.658;23.298;2022-07-09T18:08:05;3.95;;;3.55;;
12210;SDS011;6168;42.658;23.298;2022-07-09T18:10:32;3.78;;;3.33;;
12210;SDS011;6168;42.658;23.298;2022-07-09T18:12:58;4.00;;;3.47;;
12210;SDS011;6168;42.658;23.298;2022-07-09T18:15:28;3.97;;;3.42;;
12210;SDS011;6168;42.658;23.298;2022-07-09T18:17:55;3.50;;;3.30;;
12210;SDS011;6168;42.658;23.298;2022-07-09T18:20:22;3.45;;;3.25;;
12210;SDS011;6168;42.658;23.298;2022-07-09T18:22:49;3.60;;;3.30;;
12210;SDS011;6168;42.658;23.298;2022-07-09T18:25:17;4.13;;;3.83;;
12210;SDS011;6168;42.658;23.298;2022-07-09T18:27:44;4.00;;;3.67;;
12210;SDS011;6168;42.658;23.298;2022-07-09T18:30:11;4.35;;;3.97;;
12210;SDS011;6168;42.658;23.298;2022-07-09T18:32:39;4.57;;;4.38;;
12210;SDS011;6168;42.658;23.298;2022-07-09T18:35:06;4.30;;;3.83;;
12210;SDS011;6168;42.658;23.298;2022-07-09T18:37:33;4.22;;;3.95;;
12210;SDS011;6168;42.658;23.298;2022-07-09T18:40:00;5.00;;;4.65;;
12210;SDS011;6168;42.658;23.298;2022-07-09T18:42:27;4.32;;;4.07;;
12210;SDS011;6168;42.658;23.298;2022-07-09T18:44:54;4.63;;;4.20;;
12210;SDS011;6168;42.658;23.298;2022-07-09T18:47:21;4.13;;;3.92;;
12210;SDS011;6168;42.658;23.298;2022-07-09T18:49:50;5.15;;;4.85;;
12210;SDS011;6168;42.658;23.298;2022-07-09T18:52:17;4.70;;;4.40;;
12210;SDS011;6168;42.658;23.298;2022-07-09T18:54:44;7.15;;;5.05;;
12210;SDS011;6168;42.658;23.298;2022-07-09T18:57:11;7.38;;;5.22;;
12210;SDS011;6168;42.658;23.298;2022-07-09T18:59:38;6.57;;;5.95;;
12210;SDS011;6168;42.658;23.298;2022-07-09T19:02:04;6.38;;;5.93;;
12210;SDS011;6168;42.658;23.298;2022-07-09T19:04:31;5.93;;;5.63;;
12210;SDS011;6168;42.658;23.298;2022-07-09T19:07:00;5.78;;;5.47;;
12210;SDS011;6168;42.658;23.298;2022-07-09T19:09:27;6.03;;;5.45;;
12210;SDS011;6168;42.658;23.298;2022-07-09T19:11:55;6.70;;;5.93;;
12210;SDS011;6168;42.658;23.298;2022-07-09T19:14:21;5.80;;;5.40;;